createdAt,value
2023-04-02T00:00:29.360Z,1.70
2023-04-02T00:03:04.226Z,1.33
2023-04-02T00:05:49.961Z,1.20
2023-04-02T00:08:38.795Z,1.43
2023-04-02T00:11:07.545Z,0.90
2023-04-02T00:13:39.357Z,1.00
2023-04-02T00:16:12.739Z,1.13
2023-04-02T00:18:49.506Z,1.23
2023-04-02T00:21:26.785Z,1.20
2023-04-02T00:23:55.963Z,1.50
2023-04-02T00:26:38.087Z,1.20
2023-04-02T00:29:06.343Z,1.50
2023-04-02T00:31:37.767Z,1.57
2023-04-02T00:34:08.239Z,1.70
2023-04-02T00:36:36.636Z,1.50
2023-04-02T00:39:13.455Z,1.03
2023-04-02T00:41:46.585Z,1.43
2023-04-02T00:44:21.385Z,1.03
2023-04-02T00:46:49.974Z,1.50
2023-04-02T00:49:35.960Z,1.50
2023-04-02T00:52:07.542Z,1.80
2023-04-02T00:54:43.343Z,1.03
2023-04-02T00:57:23.117Z,1.40
2023-04-02T01:00:02.673Z,1.43
2023-04-02T01:02:33.321Z,1.37
2023-04-02T01:05:22.137Z,1.10
2023-04-02T01:08:01.622Z,1.17
2023-04-02T01:11:08.764Z,1.93
2023-04-02T01:14:02.429Z,1.40
2023-04-02T01:16:36.752Z,1.50
2023-04-02T01:19:53.396Z,1.93
2023-04-02T01:22:35.301Z,1.30
2023-04-02T01:25:05.285Z,1.37
2023-04-02T01:27:34.666Z,1.40
2023-04-02T01:30:05.042Z,1.50
2023-04-02T01:32:32.420Z,1.20
2023-04-02T01:34:59.792Z,1.47
2023-04-02T01:38:03.126Z,1.80
2023-04-02T01:40:35.984Z,1.27
2023-04-02T01:43:26.395Z,1.27
2023-04-02T01:45:54.089Z,1.13
2023-04-02T01:48:27.205Z,1.33
2023-04-02T01:50:57.397Z,1.20
2023-04-02T01:53:29.570Z,1.30
2023-04-02T01:56:00.068Z,1.30
2023-04-02T01:58:31.453Z,1.00
2023-04-02T02:01:07.044Z,1.17
2023-04-02T02:03:35.545Z,1.20
2023-04-02T02:06:06.372Z,1.57
2023-04-02T02:08:41.389Z,1.10
2023-04-02T02:11:16.193Z,1.17
2023-04-02T02:13:57.315Z,1.00
2023-04-02T02:16:27.257Z,1.07
2023-04-02T02:18:59.101Z,2.50
2023-04-02T02:21:50.420Z,1.47
2023-04-02T02:24:25.003Z,1.30
2023-04-02T02:27:06.904Z,1.27
2023-04-02T02:29:38.635Z,1.60
2023-04-02T02:32:07.686Z,0.97
2023-04-02T02:34:54.637Z,1.27
2023-04-02T02:37:29.951Z,1.63
2023-04-02T02:40:00.785Z,1.67
2023-04-02T02:42:33.907Z,1.20
2023-04-02T02:45:04.859Z,1.57
2023-04-02T02:47:36.164Z,1.90
2023-04-02T02:50:20.968Z,1.40
2023-04-02T02:52:57.636Z,1.97
2023-04-02T02:55:32.436Z,1.50
2023-04-02T02:58:11.498Z,1.30
2023-04-02T03:00:50.242Z,1.23
2023-04-02T03:03:24.518Z,1.20
2023-04-02T03:06:02.061Z,1.03
2023-04-02T03:08:40.568Z,1.07
2023-04-02T03:11:33.939Z,1.13
2023-04-02T03:14:42.367Z,1.43
2023-04-02T03:17:21.155Z,1.60
2023-04-02T03:19:58.270Z,1.20
2023-04-02T03:22:35.841Z,1.10
2023-04-02T03:25:12.977Z,1.57
2023-04-02T03:27:43.844Z,1.40
2023-04-02T03:30:44.838Z,1.87
2023-04-02T03:33:29.909Z,1.13
2023-04-02T03:36:22.232Z,1.23
2023-04-02T03:38:55.979Z,0.90
2023-04-02T03:41:33.789Z,1.30
2023-04-02T03:44:07.619Z,1.33
2023-04-02T03:46:41.959Z,1.23
2023-04-02T03:49:24.482Z,0.97
2023-04-02T03:52:09.400Z,1.20
2023-04-02T03:54:39.432Z,1.30
2023-04-02T03:57:18.391Z,1.33
2023-04-02T04:00:00.603Z,1.30
2023-04-02T04:02:38.330Z,1.20
2023-04-02T04:05:18.248Z,2.60
2023-04-02T04:07:45.924Z,0.90
2023-04-02T04:10:20.807Z,1.37
2023-04-02T04:12:50.144Z,1.30
2023-04-02T04:15:51.559Z,1.33
2023-04-02T04:18:34.581Z,1.40
2023-04-02T04:21:15.427Z,1.43
2023-04-02T04:23:50.317Z,1.30
2023-04-02T04:26:24.673Z,1.37
2023-04-02T04:29:17.792Z,0.90
2023-04-02T04:31:49.611Z,1.27
2023-04-02T04:34:38.816Z,1.83
2023-04-02T04:37:07.826Z,1.47
2023-04-02T04:39:47.214Z,1.30
2023-04-02T04:42:24.254Z,1.30
2023-04-02T04:44:57.675Z,1.30
2023-04-02T04:47:34.166Z,1.60
2023-04-02T04:50:30.919Z,1.47
2023-04-02T04:53:06.434Z,1.57
2023-04-02T04:55:59.691Z,0.90
2023-04-02T04:58:44.029Z,0.97
2023-04-02T05:01:19.763Z,0.90
2023-04-02T05:04:16.233Z,1.13
2023-04-02T05:06:51.810Z,1.57
2023-04-02T05:10:01.496Z,1.40
2023-04-02T05:12:41.491Z,1.47
2023-04-02T05:15:41.998Z,1.40
2023-04-02T05:18:34.640Z,0.97
2023-04-02T05:21:31.268Z,1.40
2023-04-02T05:24:34.496Z,1.37
2023-04-02T05:27:09.333Z,1.77
2023-04-02T05:29:41.314Z,1.70
2023-04-02T05:32:30.044Z,1.67
2023-04-02T05:34:58.430Z,1.50
2023-04-02T05:37:30.317Z,1.73
2023-04-02T05:40:13.429Z,1.80
2023-04-02T05:42:45.007Z,1.63
2023-04-02T05:45:36.292Z,1.50
2023-04-02T05:48:22.045Z,1.57
2023-04-02T05:50:52.864Z,1.60
2023-04-02T05:53:40.010Z,1.37
2023-04-02T05:56:24.898Z,1.70
2023-04-02T05:58:57.819Z,1.60
2023-04-02T06:01:37.233Z,1.53
2023-04-02T06:04:23.872Z,1.97
2023-04-02T06:07:03.935Z,1.60
2023-04-02T06:09:40.573Z,1.63
2023-04-02T06:12:40.423Z,1.27
2023-04-02T06:15:16.083Z,1.03
2023-04-02T06:17:53.827Z,1.00
2023-04-02T06:20:22.156Z,1.37
2023-04-02T06:22:55.313Z,1.10
2023-04-02T06:25:35.099Z,1.27
2023-04-02T06:28:07.003Z,1.47
2023-04-02T06:30:38.815Z,1.23
2023-04-02T06:33:07.926Z,1.27
2023-04-02T06:35:39.985Z,1.10
2023-04-02T06:38:18.994Z,1.03
2023-04-02T06:40:52.516Z,1.30
2023-04-02T06:43:48.960Z,1.20
2023-04-02T06:46:36.119Z,1.20
2023-04-02T06:49:23.284Z,1.57
2023-04-02T06:51:56.711Z,1.40
2023-04-02T06:54:25.417Z,1.00
2023-04-02T06:56:57.239Z,1.20
2023-04-02T06:59:36.862Z,1.20
2023-04-02T07:02:32.044Z,1.07
2023-04-02T07:05:09.022Z,1.30
2023-04-02T07:07:40.990Z,1.20
2023-04-02T07:10:12.601Z,1.23
2023-04-02T07:12:40.209Z,1.00
2023-04-02T07:15:10.959Z,1.23
2023-04-02T07:17:39.238Z,0.90
2023-04-02T07:20:20.487Z,1.40
2023-04-02T07:22:47.712Z,0.90
2023-04-02T07:25:15.502Z,1.10
2023-04-02T07:27:42.683Z,1.07
2023-04-02T07:30:10.326Z,0.87
2023-04-02T07:32:38.234Z,0.70
2023-04-02T07:35:06.241Z,1.00
2023-04-02T07:37:33.729Z,0.90
2023-04-02T07:40:01.027Z,0.70
2023-04-02T07:42:28.335Z,0.50
2023-04-02T07:44:55.527Z,0.60
2023-04-02T07:47:22.710Z,0.70
2023-04-02T07:49:49.964Z,0.83
2023-04-02T07:52:17.475Z,0.70
2023-04-02T07:54:44.923Z,0.60
2023-04-02T07:57:13.350Z,0.80
2023-04-02T07:59:40.737Z,0.80
2023-04-02T08:02:19.067Z,0.80
2023-04-02T08:04:46.405Z,0.80
2023-04-02T08:07:19.052Z,0.90
2023-04-02T08:09:46.269Z,0.90
2023-04-02T08:12:14.222Z,1.00
2023-04-02T08:14:41.444Z,1.07
2023-04-02T08:17:08.868Z,1.10
2023-04-02T08:19:47.819Z,0.70
2023-04-02T08:22:21.190Z,0.90
2023-04-02T08:24:52.355Z,0.70
2023-04-02T08:27:19.507Z,0.80
2023-04-02T08:29:46.733Z,0.90
2023-04-02T08:32:17.890Z,0.70
2023-04-02T08:34:45.748Z,0.70
2023-04-02T08:37:14.686Z,0.50
2023-04-02T08:39:41.856Z,0.77
2023-04-02T08:42:43.894Z,0.90
2023-04-02T08:45:24.152Z,0.80
2023-04-02T08:48:03.455Z,0.60
2023-04-02T08:50:34.865Z,1.70
2023-04-02T08:53:12.257Z,1.70
2023-04-02T08:55:49.768Z,0.70
2023-04-02T08:58:48.969Z,0.67
2023-04-02T09:01:34.990Z,0.73
2023-04-02T09:04:05.763Z,1.07
2023-04-02T09:06:34.483Z,0.57
2023-04-02T09:09:01.818Z,0.60
2023-04-02T09:11:53.128Z,0.70
2023-04-02T09:14:30.735Z,0.87
2023-04-02T09:17:02.623Z,0.77
2023-04-02T09:19:39.870Z,0.67
2023-04-02T09:22:28.931Z,0.93
2023-04-02T09:25:01.518Z,0.80
2023-04-02T09:27:37.698Z,0.77
2023-04-02T09:30:14.171Z,0.70
2023-04-02T09:33:07.516Z,0.60
2023-04-02T09:35:37.538Z,0.60
2023-04-02T09:38:07.683Z,0.70
2023-04-02T09:40:58.974Z,0.80
2023-04-02T09:43:32.062Z,0.60
2023-04-02T09:46:17.373Z,0.70
2023-04-02T09:48:53.218Z,0.80
2023-04-02T09:51:23.533Z,0.80
2023-04-02T09:54:12.309Z,0.40
2023-04-02T09:56:41.139Z,0.97
2023-04-02T09:59:16.853Z,0.53
2023-04-02T10:02:03.180Z,0.77
2023-04-02T10:04:47.434Z,0.80
2023-04-02T10:07:37.035Z,0.67
2023-04-02T10:10:25.083Z,0.70
2023-04-02T10:13:00.739Z,0.67
2023-04-02T10:15:37.798Z,0.97
2023-04-02T10:18:14.748Z,0.60
2023-04-02T10:20:51.059Z,0.80
2023-04-02T10:23:20.012Z,0.60
2023-04-02T10:25:57.576Z,0.70
2023-04-02T10:28:53.300Z,0.77
2023-04-02T10:31:27.346Z,0.60
2023-04-02T10:34:03.575Z,1.00
2023-04-02T10:36:54.903Z,0.80
2023-04-02T10:39:31.512Z,0.70
2023-04-02T10:42:16.842Z,0.50
2023-04-02T10:44:56.948Z,0.73
2023-04-02T10:47:41.251Z,0.60
2023-04-02T10:50:32.285Z,0.90
2023-04-02T10:53:16.297Z,0.50
2023-04-02T10:56:05.516Z,0.97
2023-04-02T10:58:38.429Z,0.70
2023-04-02T11:01:11.167Z,0.53
2023-04-02T11:03:57.846Z,1.00
2023-04-02T11:06:44.864Z,0.70
2023-04-02T11:09:31.228Z,0.83
2023-04-02T11:12:01.404Z,0.80
2023-04-02T11:14:30.934Z,0.80
2023-04-02T11:17:02.686Z,0.80
2023-04-02T11:19:32.331Z,0.90
2023-04-02T11:22:20.268Z,0.70
2023-04-02T11:24:49.689Z,0.90
2023-04-02T11:27:29.038Z,0.70
2023-04-02T11:30:15.762Z,0.90
2023-04-02T11:32:47.192Z,0.73
2023-04-02T11:35:37.515Z,0.70
2023-04-02T11:38:11.462Z,1.50
2023-04-02T11:40:51.040Z,1.93
2023-04-02T11:43:33.603Z,0.50
2023-04-02T11:46:01.754Z,0.50
2023-04-02T11:48:36.433Z,0.63
2023-04-02T11:51:24.962Z,0.83
2023-04-02T11:53:54.424Z,0.70
2023-04-02T11:56:48.009Z,0.60
2023-04-02T11:59:49.489Z,0.50
2023-04-02T12:02:29.065Z,0.70
2023-04-02T12:05:26.943Z,0.70
2023-04-02T12:08:10.844Z,0.70
2023-04-02T12:10:50.855Z,0.60
2023-04-02T12:13:20.237Z,0.60
2023-04-02T12:15:49.269Z,0.90
2023-04-02T12:18:23.159Z,0.57
2023-04-02T12:20:52.937Z,0.90
2023-04-02T12:23:24.142Z,0.90
2023-04-02T12:25:58.476Z,0.63
2023-04-02T12:28:33.784Z,0.63
2023-04-02T12:31:19.344Z,0.80
2023-04-02T12:33:51.230Z,0.77
2023-04-02T12:36:23.635Z,0.70
2023-04-02T12:38:57.380Z,0.50
2023-04-02T12:41:33.693Z,0.70
2023-04-02T12:44:03.799Z,0.53
2023-04-02T12:46:33.887Z,0.93
2023-04-02T12:49:06.600Z,0.70
2023-04-02T12:51:36.266Z,0.93
2023-04-02T12:54:03.821Z,0.67
2023-04-02T12:56:31.106Z,0.70
2023-04-02T12:59:00.932Z,0.63
2023-04-02T13:01:31.671Z,0.90
2023-04-02T13:04:13.512Z,0.70
2023-04-02T13:06:47.145Z,0.63
2023-04-02T13:09:42.544Z,0.50
2023-04-02T13:12:34.760Z,0.70
2023-04-02T13:15:04.734Z,0.70
2023-04-02T13:18:01.091Z,0.60
2023-04-02T13:20:36.546Z,0.43
2023-04-02T13:23:31.172Z,0.67
2023-04-02T13:26:19.546Z,0.50
2023-04-02T13:29:28.474Z,0.60
2023-04-02T13:32:01.889Z,1.17
2023-04-02T13:34:29.685Z,0.70
2023-04-02T13:36:57.485Z,0.80
2023-04-02T13:39:25.895Z,0.60
2023-04-02T13:41:56.384Z,0.83
2023-04-02T13:44:27.590Z,0.50
2023-04-02T13:46:56.260Z,0.60
2023-04-02T13:49:25.482Z,0.80
2023-04-02T13:52:04.848Z,0.80
2023-04-02T13:54:42.992Z,0.70
2023-04-02T13:57:10.644Z,0.50
2023-04-02T13:59:38.656Z,0.40
2023-04-02T14:02:14.357Z,0.70
2023-04-02T14:04:50.160Z,0.73
2023-04-02T14:07:29.928Z,0.57
2023-04-02T14:10:03.987Z,0.90
2023-04-02T14:12:47.652Z,0.70
2023-04-02T14:15:25.574Z,0.70
2023-04-02T14:17:52.881Z,0.90
2023-04-02T14:21:02.133Z,0.80
2023-04-02T14:23:55.881Z,0.80
2023-04-02T14:27:00.947Z,0.77
2023-04-02T14:29:37.849Z,0.60
2023-04-02T14:32:26.975Z,1.07
2023-04-02T14:35:32.874Z,0.83
2023-04-02T14:38:25.311Z,0.60
2023-04-02T14:40:54.810Z,0.70
2023-04-02T14:43:30.028Z,0.60
2023-04-02T14:45:59.113Z,0.50
2023-04-02T14:48:38.580Z,0.60
2023-04-02T14:51:17.248Z,0.70
2023-04-02T14:54:03.580Z,0.60
2023-04-02T14:56:36.419Z,0.70
2023-04-02T14:59:29.137Z,1.00
2023-04-02T15:02:07.220Z,0.70
2023-04-02T15:04:42.687Z,1.00
2023-04-02T15:07:19.638Z,0.70
2023-04-02T15:10:02.383Z,1.00
2023-04-02T15:12:37.113Z,1.17
2023-04-02T15:15:19.099Z,1.00
2023-04-02T15:17:50.396Z,0.77
2023-04-02T15:20:19.318Z,1.00
2023-04-02T15:23:06.344Z,1.40
2023-04-02T15:25:39.989Z,1.00
2023-04-02T15:28:11.804Z,0.80
2023-04-02T15:30:42.783Z,1.00
2023-04-02T15:33:38.444Z,0.93
2023-04-02T15:36:26.670Z,0.90
2023-04-02T15:39:05.221Z,1.00
2023-04-02T15:42:00.647Z,1.10
2023-04-02T15:44:28.144Z,1.07
2023-04-02T15:47:25.903Z,1.00
2023-04-02T15:50:14.748Z,1.00
2023-04-02T15:52:56.417Z,1.00
2023-04-02T15:55:36.322Z,0.70
2023-04-02T15:58:36.688Z,1.00
2023-04-02T16:01:41.715Z,1.13
2023-04-02T16:04:28.020Z,1.10
2023-04-02T16:07:12.824Z,1.00
2023-04-02T16:10:30.299Z,1.00
2023-04-02T16:13:17.827Z,1.07
2023-04-02T16:15:53.384Z,1.30
2023-04-02T16:18:50.697Z,0.90
2023-04-02T16:21:22.406Z,1.23
2023-04-02T16:23:50.113Z,0.93
2023-04-02T16:26:43.553Z,1.07
2023-04-02T16:29:35.518Z,1.20
2023-04-02T16:32:29.843Z,1.10
2023-04-02T16:35:39.810Z,0.97
2023-04-02T16:38:21.838Z,1.30
2023-04-02T16:41:14.092Z,1.07
2023-04-02T16:43:55.431Z,1.30
2023-04-02T16:46:40.818Z,0.97
2023-04-02T16:49:22.112Z,1.70
2023-04-02T16:51:49.340Z,1.00
2023-04-02T16:54:39.239Z,1.53
2023-04-02T16:57:29.545Z,1.40
2023-04-02T17:00:23.660Z,1.10
2023-04-02T17:02:54.444Z,1.00
2023-04-02T17:05:50.904Z,1.07
2023-04-02T17:08:34.468Z,0.90
2023-04-02T17:11:06.680Z,1.30
2023-04-02T17:14:16.389Z,1.40
2023-04-02T17:16:51.998Z,1.03
2023-04-02T17:19:21.407Z,1.30
2023-04-02T17:21:52.764Z,1.20
2023-04-02T17:24:26.380Z,0.80
2023-04-02T17:27:00.642Z,1.00
2023-04-02T17:29:37.859Z,1.10
2023-04-02T17:32:18.359Z,1.30
2023-04-02T17:34:45.992Z,0.90
2023-04-02T17:37:24.042Z,0.90
2023-04-02T17:40:25.392Z,0.90
2023-04-02T17:43:10.285Z,0.93
2023-04-02T17:45:40.656Z,0.80
2023-04-02T17:48:21.888Z,0.80
2023-04-02T17:51:10.070Z,0.87
2023-04-02T17:54:09.770Z,1.10
2023-04-02T17:56:55.795Z,1.00
2023-04-02T17:59:47.173Z,0.90
2023-04-02T18:02:52.042Z,1.07
2023-04-02T18:05:42.228Z,1.30
2023-04-02T18:08:19.093Z,1.17
2023-04-02T18:11:00.154Z,1.13
2023-04-02T18:13:35.625Z,0.80
2023-04-02T18:16:21.958Z,1.20
2023-04-02T18:19:12.957Z,1.10
2023-04-02T18:21:50.154Z,0.80
2023-04-02T18:24:25.957Z,1.00
2023-04-02T18:27:26.841Z,0.97
2023-04-02T18:30:05.020Z,1.23
2023-04-02T18:32:56.926Z,1.10
2023-04-02T18:35:48.110Z,0.90
2023-04-02T18:38:39.379Z,1.20
2023-04-02T18:41:32.091Z,1.27
2023-04-02T18:44:18.303Z,1.27
2023-04-02T18:46:52.142Z,0.90
2023-04-02T18:49:23.371Z,1.03
2023-04-02T18:51:55.756Z,1.60
2023-04-02T18:54:25.863Z,0.97
2023-04-02T18:56:53.284Z,1.00
2023-04-02T18:59:50.918Z,1.37
2023-04-02T19:02:33.919Z,1.40
2023-04-02T19:05:06.452Z,1.13
2023-04-02T19:07:38.749Z,1.30
2023-04-02T19:10:17.678Z,1.07
2023-04-02T19:12:45.596Z,1.37
2023-04-02T19:15:17.310Z,1.33
2023-04-02T19:18:11.231Z,1.50
2023-04-02T19:20:57.429Z,1.70
2023-04-02T19:23:49.209Z,1.10
2023-04-02T19:26:22.671Z,1.97
2023-04-02T19:29:16.294Z,0.83
2023-04-02T19:31:54.827Z,1.33
2023-04-02T19:34:34.381Z,1.10
2023-04-02T19:37:22.598Z,1.30
2023-04-02T19:40:11.479Z,1.10
2023-04-02T19:42:51.299Z,1.90
2023-04-02T19:45:26.610Z,1.20
2023-04-02T19:47:54.902Z,1.10
2023-04-02T19:50:22.499Z,1.40
2023-04-02T19:52:49.924Z,1.47
2023-04-02T19:55:17.296Z,1.30
2023-04-02T19:57:44.794Z,1.60
2023-04-02T20:00:14.612Z,1.50
2023-04-02T20:02:41.924Z,1.40
2023-04-02T20:05:09.959Z,1.30
2023-04-02T20:07:37.429Z,1.40
2023-04-02T20:10:05.515Z,1.40
2023-04-02T20:12:32.931Z,1.50
2023-04-02T20:15:00.258Z,1.43
2023-04-02T20:17:28.209Z,2.00
2023-04-02T20:19:56.017Z,1.40
2023-04-02T20:22:24.554Z,1.30
2023-04-02T20:24:52.249Z,1.20
2023-04-02T20:27:22.046Z,1.50
2023-04-02T20:29:49.366Z,1.50
2023-04-02T20:32:17.837Z,1.40
2023-04-02T20:34:45.419Z,2.43
2023-04-02T20:37:13.270Z,1.53
2023-04-02T20:39:40.875Z,1.50
2023-04-02T20:42:08.170Z,1.80
2023-04-02T20:44:36.545Z,1.70
2023-04-02T20:47:03.731Z,1.37
2023-04-02T20:49:31.153Z,1.90
2023-04-02T20:51:58.616Z,1.83
2023-04-02T20:54:26.306Z,1.70
2023-04-02T20:56:53.592Z,1.30
2023-04-02T20:59:20.936Z,1.27
2023-04-02T21:01:48.349Z,1.57
2023-04-02T21:04:16.352Z,1.60
2023-04-02T21:06:43.609Z,1.73
2023-04-02T21:09:16.097Z,1.80
2023-04-02T21:11:43.954Z,1.00
2023-04-02T21:14:11.248Z,1.80
2023-04-02T21:16:40.489Z,1.43
2023-04-02T21:19:09.716Z,1.90
2023-04-02T21:21:39.359Z,1.47
2023-04-02T21:24:08.904Z,1.50
2023-04-02T21:26:38.853Z,1.93
2023-04-02T21:29:06.556Z,2.67
2023-04-02T21:31:38.565Z,1.47
2023-04-02T21:34:06.724Z,1.70
2023-04-02T21:36:41.852Z,1.97
2023-04-02T21:39:19.597Z,1.60
2023-04-02T21:41:50.049Z,1.67
2023-04-02T21:44:20.953Z,2.00
2023-04-02T21:46:49.870Z,2.23
2023-04-02T21:49:21.814Z,1.60
2023-04-02T21:51:51.677Z,1.53
2023-04-02T21:54:19.095Z,1.87
2023-04-02T21:56:50.708Z,1.70
2023-04-02T21:59:18.743Z,1.70
2023-04-02T22:01:49.770Z,1.73
2023-04-02T22:04:22.481Z,1.63
2023-04-02T22:06:52.010Z,1.90
2023-04-02T22:09:22.743Z,2.37
2023-04-02T22:11:54.206Z,1.80
2023-04-02T22:14:22.339Z,1.90
2023-04-02T22:16:49.685Z,2.07
2023-04-02T22:19:17.226Z,2.47
2023-04-02T22:21:45.791Z,2.23
2023-04-02T22:24:15.994Z,1.67
2023-04-02T22:26:44.504Z,2.00
2023-04-02T22:29:12.284Z,1.77
2023-04-02T22:31:40.346Z,2.10
2023-04-02T22:34:07.827Z,2.40
2023-04-02T22:36:35.297Z,2.80
2023-04-02T22:39:06.559Z,2.07
2023-04-02T22:41:34.007Z,2.53
2023-04-02T22:44:02.183Z,2.33
2023-04-02T22:46:30.756Z,2.20
2023-04-02T22:48:59.135Z,2.30
2023-04-02T22:51:27.813Z,2.57
2023-04-02T22:53:56.129Z,2.30
2023-04-02T22:56:31.669Z,1.87
2023-04-02T22:59:01.194Z,2.07
2023-04-02T23:01:34.133Z,2.50
2023-04-02T23:04:01.931Z,2.30
2023-04-02T23:06:29.190Z,1.97
2023-04-02T23:08:56.559Z,2.03
2023-04-02T23:11:27.313Z,1.50
2023-04-02T23:13:56.619Z,1.83
2023-04-02T23:16:26.930Z,2.00
2023-04-02T23:18:54.737Z,1.93
2023-04-02T23:21:22.392Z,2.10
2023-04-02T23:23:50.996Z,2.33
2023-04-02T23:26:24.241Z,2.30
2023-04-02T23:28:51.489Z,2.20
2023-04-02T23:31:21.637Z,1.70
2023-04-02T23:33:50.402Z,2.00
2023-04-02T23:36:31.227Z,2.37
2023-04-02T23:39:01.544Z,1.93
2023-04-02T23:41:30.327Z,2.20
2023-04-02T23:43:58.443Z,2.70
2023-04-02T23:46:27.565Z,2.87
2023-04-02T23:48:56.863Z,3.03
2023-04-02T23:51:24.994Z,3.53
2023-04-02T23:53:53.696Z,2.30
2023-04-02T23:56:22.202Z,2.23
2023-04-02T23:58:50.219Z,2.00
